Time;durP1;ratioP1;P1;durP2;ratioP2;P2;SDS_P1;SDS_P2;PMS_P1;PMS_P2;Temp;Humidity;BMP_temperature;BMP_pressure;BME280_temperature;BME280_humidity;BME280_pressure;Samples;Min_cycle;Max_cycle;Signal;HPM_P1;HPM_P2
2023/07/14 00:00:31;;;;;;;5.80;4.32;;;;;;;18.83;84.70;98924.94;5081174;28;20543;-81
2023/07/14 00:03:18;;;;;;;5.72;4.28;;;;;;;18.87;84.44;98920.72;5083514;28;20059;-82
2023/07/14 00:06:03;;;;;;;6.60;4.43;;;;;;;18.72;85.13;98913.41;5083703;28;20082;-81
2023/07/14 00:08:48;;;;;;;6.90;4.53;;;;;;;18.80;84.77;98909.47;5079384;28;20047;-80
2023/07/14 00:11:33;;;;;;;6.10;4.18;;;;;;;18.66;84.18;98911.75;5079780;28;20177;-79
2023/07/14 00:14:17;;;;;;;8.63;3.75;;;;;;;18.90;83.76;98906.94;5078457;28;20402;-80
2023/07/14 00:17:01;;;;;;;7.18;4.07;;;;;;;18.84;84.03;98910.59;5078309;28;20082;-80
2023/07/14 00:19:45;;;;;;;7.82;3.70;;;;;;;18.86;84.06;98902.34;5080917;28;20524;-80
2023/07/14 00:22:30;;;;;;;7.43;4.50;;;;;;;18.91;83.81;98905.88;5079478;28;20608;-79
2023/07/14 00:25:14;;;;;;;9.52;4.72;;;;;;;18.90;83.91;98901.63;5080779;28;20043;-80
2023/07/14 00:27:58;;;;;;;7.03;4.32;;;;;;;18.83;84.68;98901.81;5076664;28;20075;-80
2023/07/14 00:30:43;;;;;;;6.90;4.13;;;;;;;18.90;84.40;98906.94;5079455;28;20082;-80
2023/07/14 00:33:27;;;;;;;7.50;4.00;;;;;;;18.88;84.34;98903.72;5082673;28;20043;-80
2023/07/14 00:36:12;;;;;;;6.18;4.15;;;;;;;19.08;84.02;98894.34;5081302;28;20121;-80
2023/07/14 00:38:56;;;;;;;6.35;4.35;;;;;;;19.34;84.34;98899.84;5079208;28;20067;-79
2023/07/14 00:41:42;;;;;;;6.97;4.15;;;;;;;19.43;84.18;98890.31;5081830;28;20148;-80
2023/07/14 00:44:27;;;;;;;9.27;5.00;;;;;;;19.40;84.32;98885.50;5075652;28;20114;-79
2023/07/14 00:47:19;;;;;;;7.03;4.25;;;;;;;19.32;84.19;98889.44;5071776;28;20040;-79
2023/07/14 00:50:04;;;;;;;6.65;4.47;;;;;;;19.48;83.87;98892.19;5079329;28;20047;-80
2023/07/14 00:52:48;;;;;;;4.57;3.95;;;;;;;19.41;83.80;98881.78;5076917;28;20043;-80
2023/07/14 00:55:37;;;;;;;4.97;3.92;;;;;;;19.38;83.80;98880.44;5079152;28;20043;-79
2023/07/14 00:58:26;;;;;;;4.95;3.83;;;;;;;19.27;83.66;98871.59;5077836;28;20081;-80
2023/07/14 01:01:13;;;;;;;6.88;4.10;;;;;;;19.23;83.83;98864.38;5080366;28;20062;-80
2023/07/14 01:03:58;;;;;;;8.75;4.30;;;;;;;19.20;83.58;98875.53;5077008;28;20043;-79
2023/07/14 01:06:43;;;;;;;6.60;4.18;;;;;;;19.11;83.93;98867.22;5078119;28;20067;-79
2023/07/14 01:09:27;;;;;;;8.15;5.13;;;;;;;19.15;83.64;98868.31;5075503;28;20112;-79
2023/07/14 01:12:17;;;;;;;5.43;3.85;;;;;;;19.07;83.79;98858.94;5083072;28;20039;-79
2023/07/14 01:15:04;;;;;;;7.30;4.63;;;;;;;18.95;84.04;98853.78;5083427;28;20112;-80
2023/07/14 01:17:50;;;;;;;6.38;4.38;;;;;;;18.86;84.45;98849.19;5075847;28;20063;-79
2023/07/14 01:20:38;;;;;;;8.65;4.22;;;;;;;18.87;84.64;98851.59;5076530;28;20551;-79
2023/07/14 01:23:55;;;;;;;8.00;4.50;;;;;;;18.78;85.24;98859.22;5077580;28;20055;-79
2023/07/14 01:27:00;;;;;;;7.07;4.18;;;;;;;18.65;86.17;98852.44;5082647;28;20142;-79
2023/07/14 01:29:46;;;;;;;5.50;4.25;;;;;;;18.69;86.43;98845.59;5079487;28;20452;-80
2023/07/14 01:32:39;;;;;;;9.52;4.32;;;;;;;18.79;86.25;98842.22;5077955;28;20149;-79
2023/07/14 01:35:31;;;;;;;8.15;4.45;;;;;;;18.78;86.05;98843.28;5079181;28;20040;-79
2023/07/14 01:38:15;;;;;;;9.75;4.68;;;;;;;19.01;85.48;98848.50;5080809;28;20524;-79
2023/07/14 01:41:03;;;;;;;6.13;4.00;;;;;;;19.03;85.38;98836.56;5082375;28;20055;-80
2023/07/14 01:43:48;;;;;;;7.60;3.88;;;;;;;19.01;84.99;98830.72;5081351;28;20497;-81
2023/07/14 01:46:32;;;;;;;7.32;4.18;;;;;;;18.95;84.73;98829.03;5077673;28;20127;-80
2023/07/14 01:49:36;;;;;;;7.20;3.95;;;;;;;18.94;84.70;98830.91;5080266;28;20125;-80
2023/07/14 01:52:25;;;;;;;7.82;4.57;;;;;;;18.76;84.96;98828.63;5081403;28;20051;-80
2023/07/14 01:55:12;;;;;;;6.53;3.80;;;;;;;18.85;84.85;98819.13;5078873;28;20094;-82
2023/07/14 01:57:57;;;;;;;6.78;4.15;;;;;;;18.80;85.12;98816.41;5079914;28;20546;-81
2023/07/14 02:00:46;;;;;;;5.55;3.97;;;;;;;18.76;85.08;98815.34;5077548;28;20450;-80
2023/07/14 02:03:37;;;;;;;8.02;4.10;;;;;;;18.78;84.57;98810.56;5078466;28;20543;-80
2023/07/14 02:06:23;;;;;;;8.20;3.83;;;;;;;18.74;85.01;98814.78;5080514;28;20051;-80
2023/07/14 02:09:17;;;;;;;4.93;3.88;;;;;;;18.77;85.48;98808.97;5083940;28;20058;-79
2023/07/14 02:12:06;;;;;;;7.85;4.32;;;;;;;18.69;85.61;98808.38;5080410;28;20046;-79
2023/07/14 02:15:02;;;;;;;7.10;4.05;;;;;;;18.70;85.42;98815.28;5085789;28;20500;-80
2023/07/14 02:17:48;;;;;;;5.93;3.90;;;;;;;18.81;85.10;98802.06;5082706;28;20039;-80
2023/07/14 02:20:35;;;;;;;6.78;3.85;;;;;;;18.82;85.02;98801.00;5082898;28;20535;-81
2023/07/14 02:23:22;;;;;;;6.13;3.67;;;;;;;18.81;84.71;98788.78;5083855;28;20039;-82
2023/07/14 02:26:15;;;;;;;6.03;4.03;;;;;;;19.01;84.21;98797.97;5084003;28;20047;-80
2023/07/14 02:28:59;;;;;;;7.40;3.80;;;;;;;19.05;84.13;98799.06;5079327;28;20039;-81
2023/07/14 02:31:53;;;;;;;7.10;4.00;;;;;;;18.87;84.37;98787.78;5083525;28;20088;-80
2023/07/14 02:34:43;;;;;;;9.55;4.20;;;;;;;18.94;84.23;98790.19;5081923;28;20116;-81
2023/07/14 02:38:08;;;;;;;6.90;4.03;;;;;;;18.98;84.14;98794.78;5079818;28;20042;-80
2023/07/14 02:40:55;;;;;;;6.32;3.90;;;;;;;18.81;84.99;98786.13;5080212;28;20110;-79
2023/07/14 02:43:39;;;;;;;7.45;3.97;;;;;;;18.81;84.72;98786.94;5086521;28;20055;-80
2023/07/14 02:46:39;;;;;;;5.85;3.33;;;;;;;18.88;85.02;98789.38;5080605;28;20615;-80
2023/07/14 02:49:23;;;;;;;10.43;4.50;;;;;;;18.88;85.22;98792.03;5085373;28;20595;-80
2023/07/14 02:52:07;;;;;;;7.50;4.25;;;;;;;18.92;85.10;98774.50;5080907;28;20104;-79
2023/07/14 02:54:51;;;;;;;8.85;4.50;;;;;;;19.02;84.60;98778.31;5084397;28;22083;-79
2023/07/14 02:57:35;;;;;;;6.18;4.07;;;;;;;19.04;85.29;98773.53;5077939;28;20102;-80
2023/07/14 03:00:19;;;;;;;9.93;4.65;;;;;;;19.10;84.95;98783.16;5078112;28;20123;-80
2023/07/14 03:03:03;;;;;;;6.72;4.20;;;;;;;19.11;85.19;98776.78;5080952;28;20047;-79
2023/07/14 03:05:47;;;;;;;7.18;4.72;;;;;;;19.04;85.73;98773.53;5081103;28;20123;-79
2023/07/14 03:08:31;;;;;;;9.13;4.72;;;;;;;19.30;85.00;98773.69;5085213;28;20036;-79
2023/07/14 03:11:16;;;;;;;6.80;4.65;;;;;;;19.04;85.76;98765.53;5080603;28;20125;-80
2023/07/14 03:14:02;;;;;;;8.15;4.90;;;;;;;19.07;85.74;98765.06;5082226;28;21706;-79
2023/07/14 03:16:46;;;;;;;9.43;4.95;;;;;;;19.11;86.22;98760.81;5077781;28;20493;-79
2023/07/14 03:19:31;;;;;;;6.78;4.55;;;;;;;19.10;86.55;98759.22;5079954;28;20035;-79
2023/07/14 03:22:15;;;;;;;6.45;4.30;;;;;;;19.13;86.68;98742.72;5077790;28;20451;-79
2023/07/14 03:25:00;;;;;;;6.05;4.53;;;;;;;19.18;86.62;98740.09;5080672;28;20039;-79
2023/07/14 03:27:45;;;;;;;6.55;4.72;;;;;;;19.20;87.17;98737.97;5079746;28;20110;-80
2023/07/14 03:30:38;;;;;;;8.13;4.75;;;;;;;19.30;87.04;98736.44;5080853;28;20056;-80
2023/07/14 03:33:23;;;;;;;6.07;4.75;;;;;;;19.29;86.82;98735.63;5074027;28;20085;-80
2023/07/14 03:36:12;;;;;;;9.93;5.50;;;;;;;19.35;86.77;98739.09;5078248;28;20062;-79
2023/07/14 03:39:21;;;;;;;8.40;4.50;;;;;;;19.31;86.79;98738.03;5079341;28;20035;-79
2023/07/14 03:42:06;;;;;;;7.90;5.20;;;;;;;19.41;86.84;98727.41;5080228;28;20579;-79
2023/07/14 03:44:50;;;;;;;9.18;5.03;;;;;;;19.38;86.76;98723.44;5076334;28;20085;-79
2023/07/14 03:47:36;;;;;;;8.13;4.75;;;;;;;19.45;86.91;98725.03;5081808;28;20379;-79
2023/07/14 03:50:20;;;;;;;10.38;5.32;;;;;;;19.57;86.92;98719.47;5077539;28;20113;-78
2023/07/14 03:53:04;;;;;;;9.77;5.10;;;;;;;19.44;87.13;98710.91;5081313;28;20095;-79
2023/07/14 03:55:48;;;;;;;6.95;4.88;;;;;;;19.44;87.47;98716.25;5078788;28;20043;-80
2023/07/14 03:58:33;;;;;;;7.72;4.88;;;;;;;19.46;87.59;98718.66;5075754;28;20040;-79
2023/07/14 04:01:16;;;;;;;9.95;5.03;;;;;;;19.43;87.66;98722.63;5078273;28;20046;-79
2023/07/14 04:04:00;;;;;;;9.43;5.13;;;;;;;19.48;88.11;98716.53;5084133;28;20445;-79
2023/07/14 04:06:45;;;;;;;6.85;4.78;;;;;;;19.58;87.97;98723.75;5074260;28;20094;-79
2023/07/14 04:09:29;;;;;;;9.95;5.53;;;;;;;19.44;88.83;98721.56;5083778;28;20111;-79
2023/07/14 04:12:13;;;;;;;10.25;4.97;;;;;;;19.54;88.37;98713.63;5086097;28;20150;-79
2023/07/14 04:14:57;;;;;;;10.02;5.15;;;;;;;19.61;88.10;98715.22;5077878;28;20509;-79
2023/07/14 04:17:41;;;;;;;10.35;4.97;;;;;;;19.55;88.26;98704.56;5079270;28;20036;-79
2023/07/14 04:20:25;;;;;;;10.55;5.50;;;;;;;19.53;88.65;98709.38;5080057;28;20038;-79
2023/07/14 04:23:09;;;;;;;8.38;5.25;;;;;;;19.78;88.39;98694.50;5079754;28;20058;-80
2023/07/14 04:25:54;;;;;;;9.00;5.25;;;;;;;19.62;88.81;98699.00;5077621;28;20151;-79
2023/07/14 04:28:38;;;;;;;8.45;5.57;;;;;;;19.73;88.26;98696.34;5075394;28;20090;-80
2023/07/14 04:31:22;;;;;;;9.02;5.43;;;;;;;20.22;87.35;98700.44;5074987;28;20074;-80
2023/07/14 04:34:06;;;;;;;9.10;5.57;;;;;;;20.45;85.60;98690.31;5082493;28;20452;-80
2023/07/14 04:36:50;;;;;;;9.90;5.63;;;;;;;20.66;85.20;98696.41;5082444;28;20500;-79
2023/07/14 04:39:35;;;;;;;9.27;5.40;;;;;;;20.15;86.37;98690.06;5080348;28;20043;-80
2023/07/14 04:42:19;;;;;;;10.18;5.40;;;;;;;19.87;87.81;98696.66;5080406;28;20096;-81
2023/07/14 04:45:03;;;;;;;8.57;5.03;;;;;;;19.73;88.15;98685.69;5082733;28;20065;-80
2023/07/14 04:47:50;;;;;;;10.63;5.65;;;;;;;19.89;87.94;98683.88;5083953;28;20458;-80
2023/07/14 04:50:35;;;;;;;8.50;4.97;;;;;;;19.90;88.02;98686.25;5078121;28;20094;-80
2023/07/14 04:53:19;;;;;;;7.28;4.43;;;;;;;20.03;87.28;98676.19;5076433;28;20046;-81
2023/07/14 04:56:03;;;;;;;5.88;5.10;;;;;;;19.84;87.64;98672.13;5077016;28;20102;-81
2023/07/14 04:58:47;;;;;;;8.73;5.03;;;;;;;19.75;88.28;98667.59;5076071;28;20039;-81
2023/07/14 05:01:32;;;;;;;8.93;4.97;;;;;;;19.77;88.36;98674.28;5077209;28;20035;-80
2023/07/14 05:04:17;;;;;;;9.63;5.30;;;;;;;19.92;88.02;98667.41;5081784;28;20429;-80
2023/07/14 05:07:01;;;;;;;7.50;4.75;;;;;;;20.04;88.24;98662.59;5077040;28;20098;-81
2023/07/14 05:09:44;;;;;;;9.18;5.43;;;;;;;20.29;87.80;98652.19;5079547;28;20085;-80
2023/07/14 05:12:28;;;;;;;10.27;5.15;;;;;;;20.43;87.28;98649.78;5074935;28;20039;-81
2023/07/14 05:15:12;;;;;;;9.38;5.90;;;;;;;20.49;86.32;98644.16;5081433;28;20093;-80
2023/07/14 05:17:56;;;;;;;6.20;4.95;;;;;;;20.75;86.35;98652.13;5078291;28;20047;-80
2023/07/14 05:20:41;;;;;;;8.60;4.93;;;;;;;20.88;85.90;98642.78;5078700;28;20047;-80
2023/07/14 05:23:26;;;;;;;7.15;4.93;;;;;;;21.02;85.43;98644.84;5078424;28;20110;-80
2023/07/14 05:26:10;;;;;;;8.32;5.03;;;;;;;20.98;85.54;98645.38;5079700;28;20035;-80
2023/07/14 05:28:54;;;;;;;8.35;5.78;;;;;;;20.95;85.55;98645.16;5077946;28;20094;-79
2023/07/14 05:31:39;;;;;;;8.98;5.35;;;;;;;21.07;84.99;98636.81;5079706;28;20090;-80
2023/07/14 05:34:23;;;;;;;9.30;5.75;;;;;;;20.94;85.01;98638.22;5079301;28;20116;-79
2023/07/14 05:37:07;;;;;;;8.45;6.30;;;;;;;20.93;85.22;98636.59;5082845;28;20089;-79
2023/07/14 05:39:51;;;;;;;10.45;5.97;;;;;;;20.95;85.46;98635.25;5081194;28;20038;-80
2023/07/14 05:42:36;;;;;;;12.65;6.30;;;;;;;20.96;85.51;98630.75;5086483;28;20051;-80
2023/07/14 05:45:20;;;;;;;8.45;5.38;;;;;;;20.77;85.77;98628.66;5084092;28;20085;-80
2023/07/14 05:48:04;;;;;;;13.10;5.75;;;;;;;20.93;85.76;98631.25;5083799;28;20052;-80
2023/07/14 05:50:49;;;;;;;7.70;5.28;;;;;;;20.98;86.24;98629.38;5081530;28;20042;-80
2023/07/14 05:53:33;;;;;;;8.10;5.90;;;;;;;21.11;86.05;98627.19;5080584;28;20440;-80
2023/07/14 05:56:17;;;;;;;8.40;5.72;;;;;;;21.31;85.25;98625.50;5080533;28;20081;-80
2023/07/14 05:59:01;;;;;;;10.50;5.90;;;;;;;21.39;85.15;98620.38;5084903;28;20044;-80
2023/07/14 06:01:46;;;;;;;9.63;6.38;;;;;;;21.34;85.38;98622.28;5084310;28;20085;-80
2023/07/14 06:04:35;;;;;;;9.90;6.22;;;;;;;21.40;84.94;98623.81;5084545;28;20044;-81
2023/07/14 06:07:19;;;;;;;10.32;5.78;;;;;;;21.62;84.33;98609.28;5079113;28;20162;-80
2023/07/14 06:10:04;;;;;;;11.02;6.18;;;;;;;21.72;84.45;98617.25;5084075;28;20105;-80
2023/07/14 06:12:48;;;;;;;9.32;6.03;;;;;;;21.81;83.64;98610.25;5077876;28;20035;-82
2023/07/14 06:15:32;;;;;;;8.05;5.93;;;;;;;21.83;84.18;98602.75;5086405;28;20046;-82
2023/07/14 06:18:17;;;;;;;8.68;6.03;;;;;;;22.02;82.81;98598.56;5083682;28;20155;-81
2023/07/14 06:21:01;;;;;;;8.70;6.13;;;;;;;22.17;82.60;98595.75;5082646;28;20588;-83
2023/07/14 06:23:45;;;;;;;8.45;5.45;;;;;;;22.22;82.66;98595.69;5078943;28;20043;-82
2023/07/14 06:26:29;;;;;;;8.98;6.10;;;;;;;22.37;82.26;98597.41;5078440;28;20142;-82
2023/07/14 06:29:14;;;;;;;9.30;6.20;;;;;;;22.30;82.51;98588.13;5082620;28;20507;-81
2023/07/14 06:31:59;;;;;;;7.20;5.75;;;;;;;22.49;82.06;98582.91;5085353;28;20032;-83
2023/07/14 06:34:43;;;;;;;8.02;5.15;;;;;;;22.68;81.36;98588.28;5081432;28;20055;-83
2023/07/14 06:37:28;;;;;;;7.22;5.03;;;;;;;22.82;81.33;98583.06;5078836;28;20035;-83
2023/07/14 06:40:12;;;;;;;12.60;6.15;;;;;;;22.86;80.88;98586.75;5083184;28;20119;-85
2023/07/14 06:43:00;;;;;;;8.57;5.60;;;;;;;22.88;81.29;98575.72;5079239;28;20085;-83
2023/07/14 06:45:47;;;;;;;8.05;5.80;;;;;;;22.97;80.83;98577.47;5084251;28;20559;-85
2023/07/14 06:48:32;;;;;;;10.80;5.85;;;;;;;23.13;80.78;98581.84;5079025;28;20093;-85
2023/07/14 06:51:19;;;;;;;8.10;5.53;;;;;;;23.23;80.64;98579.81;5083643;28;20047;-84
2023/07/14 06:54:03;;;;;;;11.48;5.63;;;;;;;23.40;80.63;98578.53;5089174;28;20101;-84
2023/07/14 06:56:48;;;;;;;8.43;5.03;;;;;;;23.48;80.50;98580.56;5079736;28;20394;-83
2023/07/14 06:59:32;;;;;;;8.07;5.47;;;;;;;23.67;80.23;98585.09;5080562;28;20043;-84
2023/07/14 07:02:16;;;;;;;13.18;5.68;;;;;;;23.66;80.35;98581.59;5081058;28;20040;-85
2023/07/14 07:05:00;;;;;;;9.20;6.03;;;;;;;23.27;80.52;98574.69;5084218;28;20089;-80
2023/07/14 07:07:45;;;;;;;7.80;5.00;;;;;;;23.57;80.49;98575.31;5083507;28;20560;-83
2023/07/14 07:10:30;;;;;;;9.23;5.85;;;;;;;23.40;81.22;98570.50;5085122;28;20114;-82
2023/07/14 07:13:15;;;;;;;7.15;5.47;;;;;;;23.71;80.13;98572.69;5083665;28;20093;-84
2023/07/14 07:15:59;;;;;;;11.45;5.85;;;;;;;23.71;80.75;98572.69;5077447;28;20126;-85
2023/07/14 07:18:43;;;;;;;9.93;5.45;;;;;;;23.94;80.19;98567.47;5082835;28;20488;-84
2023/07/14 07:21:28;;;;;;;11.25;5.07;;;;;;;23.91;79.45;98560.03;5082314;28;20056;-84
2023/07/14 07:24:12;;;;;;;11.05;5.13;;;;;;;24.23;79.41;98561.88;5084780;28;20128;-85
2023/07/14 07:26:56;;;;;;;10.55;5.00;;;;;;;24.27;79.00;98551.38;5078554;28;20101;-80
2023/07/14 07:29:44;;;;;;;17.60;5.50;;;;;;;24.15;79.51;98553.72;5072239;28;21513;-82
2023/07/14 07:32:28;;;;;;;11.05;5.10;;;;;;;24.12;79.24;98548.97;5078603;28;20074;-81
2023/07/14 07:35:13;;;;;;;10.05;5.53;;;;;;;24.27;79.58;98550.56;5084077;28;20132;-86
2023/07/14 07:37:59;;;;;;;11.25;5.28;;;;;;;24.06;78.92;98545.59;5079126;28;20129;-85
2023/07/14 07:40:45;;;;;;;8.82;5.03;;;;;;;24.28;79.05;98534.19;5077544;28;20102;-85
2023/07/14 07:43:29;;;;;;;10.98;5.10;;;;;;;24.15;79.58;98537.66;5075053;28;20109;-84
2023/07/14 07:46:13;;;;;;;7.68;5.15;;;;;;;24.11;79.98;98540.16;5079947;28;20141;-83
2023/07/14 07:48:57;;;;;;;9.25;5.32;;;;;;;24.13;79.55;98529.09;5080593;28;20043;-82
2023/07/14 07:51:41;;;;;;;9.25;5.30;;;;;;;23.68;80.07;98527.72;5082440;28;20098;-83
2023/07/14 07:54:25;;;;;;;7.50;5.13;;;;;;;23.83;79.71;98521.31;5078420;28;20042;-82
2023/07/14 07:57:10;;;;;;;7.55;4.80;;;;;;;24.03;79.26;98525.53;5077006;28;20043;-87
2023/07/14 07:59:54;;;;;;;8.00;5.13;;;;;;;24.18;78.98;98521.00;5077709;28;20441;-83
2023/07/14 08:02:41;;;;;;;8.38;5.60;;;;;;;24.14;79.12;98514.59;5077306;28;20062;-83
2023/07/14 08:05:25;;;;;;;12.63;5.40;;;;;;;24.42;78.66;98519.97;5082799;28;20409;-84
2023/07/14 08:08:09;;;;;;;12.60;5.60;;;;;;;24.42;78.98;98515.41;5080922;28;20051;-83
2023/07/14 08:10:53;;;;;;;9.60;5.30;;;;;;;24.18;79.70;98512.94;5079108;28;20044;-83
2023/07/14 08:13:39;;;;;;;8.20;5.20;;;;;;;24.36;79.88;98517.38;5081485;28;20093;-83
2023/07/14 08:16:23;;;;;;;9.65;5.85;;;;;;;24.47;80.54;98511.81;5078800;28;20086;-82
2023/07/14 08:19:07;;;;;;;10.82;5.22;;;;;;;24.51;81.11;98510.13;5076359;28;20119;-82
2023/07/14 08:21:51;;;;;;;8.90;6.20;;;;;;;23.42;83.62;98511.28;5076315;28;20075;-82
2023/07/14 08:24:35;;;;;;;10.05;6.28;;;;;;;24.35;83.42;98513.13;5071746;28;20043;-83
2023/07/14 08:27:19;;;;;;;10.63;6.28;;;;;;;24.27;83.20;98508.47;5077703;28;20440;-83
2023/07/14 08:30:05;;;;;;;9.80;6.80;;;;;;;24.08;84.62;98511.25;5079147;28;20381;-82
2023/07/14 08:32:50;;;;;;;11.98;7.05;;;;;;;23.86;84.28;98514.56;5077045;28;20094;-84
2023/07/14 08:35:34;;;;;;;10.13;6.57;;;;;;;23.57;85.57;98513.72;5081488;28;20177;-83
2023/07/14 08:38:19;;;;;;;8.27;6.50;;;;;;;23.87;85.98;98510.78;5077557;28;20066;-81
2023/07/14 08:41:20;;;;;;;8.93;6.20;;;;;;;23.81;87.33;98510.09;5080981;28;20083;-84
2023/07/14 08:44:31;;;;;;;8.85;6.07;;;;;;;24.01;87.93;98505.44;5080721;28;20059;-84
2023/07/14 08:47:32;;;;;;;10.25;5.70;;;;;;;23.90;88.24;98500.28;5073971;28;20038;-84
2023/07/14 08:50:25;;;;;;;11.35;6.22;;;;;;;23.87;88.26;98503.53;5077177;28;20075;-84
2023/07/14 08:53:20;;;;;;;8.15;6.18;;;;;;;23.65;90.21;98491.59;5077187;28;20047;-84
2023/07/14 08:56:05;;;;;;;10.30;5.93;;;;;;;23.91;89.66;98495.72;5076917;28;20089;-85
2023/07/14 08:58:54;;;;;;;7.10;5.72;;;;;;;23.84;89.82;98501.44;5082751;28;20039;-82
2023/07/14 09:01:52;;;;;;;9.30;6.93;;;;;;;23.67;89.51;98486.72;5086156;28;20054;-83
2023/07/14 09:04:40;;;;;;;9.45;6.68;;;;;;;23.82;89.51;98493.72;5085004;28;20410;-84
2023/07/14 09:07:25;;;;;;;8.60;5.95;;;;;;;23.75;89.53;98493.28;5085718;28;20039;-83
2023/07/14 09:10:11;;;;;;;10.02;6.75;;;;;;;23.69;90.28;98489.13;5088310;28;20051;-85
2023/07/14 09:13:27;;;;;;;8.95;5.95;;;;;;;24.07;89.75;98483.63;5075977;28;20042;-83
2023/07/14 09:16:15;;;;;;;10.13;7.05;;;;;;;23.42;91.37;98469.25;5074502;28;20090;-84
2023/07/14 09:19:02;;;;;;;9.57;6.47;;;;;;;23.92;89.73;98481.22;5073569;28;20058;-84
2023/07/14 09:22:21;;;;;;;10.90;6.57;;;;;;;24.39;88.90;98470.41;5078364;28;20039;-84
2023/07/14 09:25:40;;;;;;;9.55;6.97;;;;;;;24.50;88.64;98479.84;5071520;28;20377;-85
2023/07/14 09:28:37;;;;;;;9.55;5.80;;;;;;;24.40;87.80;98466.63;5064580;28;20079;-81
2023/07/14 09:31:44;;;;;;;15.00;6.70;;;;;;;24.17;88.23;98455.03;5072537;28;20086;-82
2023/07/14 09:34:39;;;;;;;9.20;5.85;;;;;;;24.03;87.86;98461.22;5075379;28;20254;-82
2023/07/14 09:37:38;;;;;;;10.30;5.30;;;;;;;24.03;88.17;98455.84;5083248;28;20031;-82
2023/07/14 09:40:25;;;;;;;6.15;4.88;;;;;;;23.89;89.53;98449.66;5076680;28;20509;-81
2023/07/14 09:43:10;;;;;;;10.88;6.00;;;;;;;23.90;89.04;98441.31;5071790;28;20538;-80
2023/07/14 09:45:55;;;;;;;9.30;5.65;;;;;;;23.62;89.35;98435.94;5077208;28;20123;-81
2023/07/14 09:48:49;;;;;;;9.52;5.63;;;;;;;24.08;88.38;98434.28;5081048;28;20083;-81
2023/07/14 09:51:33;;;;;;;8.30;5.55;;;;;;;24.09;87.64;98430.50;5076829;28;20120;-80
2023/07/14 09:54:17;;;;;;;9.35;5.80;;;;;;;24.02;88.29;98429.31;5075456;28;20096;-80
2023/07/14 09:57:02;;;;;;;6.75;5.30;;;;;;;24.06;88.46;98423.06;5082232;28;20071;-81
2023/07/14 09:59:52;;;;;;;8.32;5.40;;;;;;;23.87;89.31;98408.97;5078309;28;20145;-80
2023/07/14 10:02:37;;;;;;;9.68;5.78;;;;;;;23.80;89.70;98412.84;5070511;28;20043;-80
2023/07/14 10:05:44;;;;;;;9.38;4.55;;;;;;;23.04;90.36;98405.03;5075506;28;20394;-81
2023/07/14 10:08:34;;;;;;;6.20;4.32;;;;;;;23.45;89.64;98406.25;5076797;28;20121;-81
2023/07/14 10:11:37;;;;;;;10.27;5.82;;;;;;;23.39;90.15;98400.22;5076405;28;20467;-81
2023/07/14 10:14:32;;;;;;;9.27;5.90;;;;;;;23.46;90.24;98392.56;5080863;28;20528;-81
2023/07/14 10:17:25;;;;;;;9.05;6.70;;;;;;;23.27;91.31;98387.25;5080256;28;20051;-81
2023/07/14 10:20:16;;;;;;;10.90;7.68;;;;;;;23.09;91.83;98380.88;5076058;28;20112;-80
2023/07/14 10:23:01;;;;;;;13.30;8.10;;;;;;;23.27;91.68;98381.13;5080371;28;20051;-81
2023/07/14 10:25:51;;;;;;;11.35;7.70;;;;;;;23.56;92.24;98372.03;5068770;28;20671;-81
2023/07/14 10:28:37;;;;;;;11.07;8.50;;;;;;;23.48;92.16;98371.63;5075656;28;20047;-81
2023/07/14 10:31:27;;;;;;;10.15;7.43;;;;;;;23.68;92.48;98365.09;5082835;28;20520;-83
2023/07/14 10:34:36;;;;;;;14.85;8.73;;;;;;;23.44;93.25;98354.56;5086652;28;20043;-84
2023/07/14 10:37:24;;;;;;;9.35;7.55;;;;;;;23.52;92.82;98355.78;5082511;28;20453;-85
2023/07/14 10:40:17;;;;;;;10.98;7.43;;;;;;;23.42;92.08;98342.56;5080065;28;20047;-82
2023/07/14 10:43:03;;;;;;;10.87;6.27;;;;;;;23.70;91.99;98346.03;5078705;28;20112;-84
2023/07/14 10:45:55;;;;;;;8.38;6.22;;;;;;;23.76;91.50;98331.44;5079445;28;20329;-86
2023/07/14 10:48:47;;;;;;;12.50;6.38;;;;;;;24.09;90.38;98325.19;5082423;28;20051;-83
2023/07/14 10:51:57;;;;;;;7.97;6.35;;;;;;;23.88;90.25;98322.09;5076331;28;20547;-85
2023/07/14 10:54:49;;;;;;;7.55;5.88;;;;;;;24.54;88.99;98311.00;5080041;28;20050;-84
2023/07/14 10:58:12;;;;;;;6.95;5.63;;;;;;;24.43;88.62;98298.94;5077914;28;20094;-85
2023/07/14 11:01:04;;;;;;;7.75;6.25;;;;;;;24.21;89.96;98290.56;5083452;28;20525;-83
2023/07/14 11:03:55;;;;;;;7.63;5.72;;;;;;;24.07;89.71;98284.44;5082621;28;20036;-84
2023/07/14 11:06:43;;;;;;;7.53;5.28;;;;;;;23.75;90.19;98283.53;5080072;28;20567;-83
2023/07/14 11:09:28;;;;;;;6.95;5.13;;;;;;;23.78;89.95;98289.09;5083354;28;20055;-83
2023/07/14 11:12:34;;;;;;;7.57;5.57;;;;;;;23.79;90.18;98268.44;5082695;28;20118;-83
2023/07/14 11:15:24;;;;;;;7.22;5.68;;;;;;;23.91;90.16;98275.94;5078674;28;20047;-83
2023/07/14 11:18:43;;;;;;;7.15;5.20;;;;;;;23.91;89.13;98258.00;5081896;28;20039;-83
2023/07/14 11:21:38;;;;;;;5.75;4.53;;;;;;;23.72;89.10;98244.72;5082239;28;20066;-82
2023/07/14 11:24:51;;;;;;;5.78;4.65;;;;;;;23.53;90.77;98237.63;5077997;28;20078;-82
2023/07/14 11:27:40;;;;;;;6.50;4.65;;;;;;;23.39;91.35;98234.19;5084878;28;20039;-82
2023/07/14 11:30:39;;;;;;;6.53;5.05;;;;;;;22.87;92.99;98228.97;5084255;28;20055;-83
2023/07/14 11:33:35;;;;;;;9.27;5.53;;;;;;;22.72;93.64;98232.72;5082413;28;20035;-82
2023/07/14 11:36:33;;;;;;;7.53;5.03;;;;;;;22.53;95.30;98215.66;5077585;28;20042;-81
2023/07/14 11:39:30;;;;;;;7.70;4.88;;;;;;;22.44;95.42;98205.91;5083903;28;20125;-82
2023/07/14 11:42:22;;;;;;;5.63;4.22;;;;;;;22.44;96.02;98208.59;5081048;28;20158;-81
2023/07/14 11:45:19;;;;;;;8.13;5.10;;;;;;;22.07;96.51;98203.81;5076304;28;20087;-82
2023/07/14 11:48:04;;;;;;;7.93;5.38;;;;;;;21.64;99.81;98201.22;5075236;28;20093;-84
2023/07/14 11:51:02;;;;;;;7.75;5.50;;;;;;;21.75;100.00;98186.63;5073803;28;20521;-84
2023/07/14 11:54:13;;;;;;;9.55;6.32;;;;;;;22.00;100.00;98176.66;5089674;28;20042;-81
2023/07/14 11:57:03;;;;;;;6.03;4.82;;;;;;;22.06;100.00;98162.13;5092546;28;20039;-83
2023/07/14 11:59:54;;;;;;;8.73;5.85;;;;;;;22.06;100.00;98159.47;5086394;28;20094;-82
2023/07/14 12:02:54;;;;;;;8.25;5.35;;;;;;;21.93;100.00;98160.22;5063821;28;20501;-83
2023/07/14 12:05:39;;;;;;;7.32;5.85;;;;;;;21.45;100.00;98145.94;5079685;28;20143;-83
2023/07/14 12:08:24;;;;;;;8.48;5.88;;;;;;;21.01;100.00;98141.66;5079448;28;20071;-81
2023/07/14 12:11:28;;;;;;;7.82;6.03;;;;;;;21.05;100.00;98140.03;5075998;28;20093;-84
2023/07/14 12:14:37;;;;;;;6.57;5.55;;;;;;;21.08;100.00;98139.47;5076771;28;20097;-86
2023/07/14 12:17:36;;;;;;;7.90;5.75;;;;;;;21.31;100.00;98135.16;5083296;28;20062;-83
2023/07/14 12:20:32;;;;;;;8.85;5.60;;;;;;;21.32;100.00;98119.94;5077359;28;20083;-85
2023/07/14 12:23:27;;;;;;;7.30;6.20;;;;;;;21.29;100.00;98115.19;5077998;28;20327;-85
2023/07/14 12:26:14;;;;;;;8.63;5.95;;;;;;;20.70;100.00;98108.13;5079903;28;20050;-86
2023/07/14 12:29:12;;;;;;;8.98;5.80;;;;;;;20.64;100.00;98107.41;5075133;28;20093;-85
2023/07/14 12:31:56;;;;;;;10.27;5.88;;;;;;;20.73;100.00;98093.44;5078263;28;20098;-87
2023/07/14 12:34:43;;;;;;;10.60;6.22;;;;;;;20.46;100.00;98094.81;5079399;28;20089;-86
2023/07/14 12:37:32;;;;;;;10.02;6.38;;;;;;;20.72;100.00;98092.63;5076143;28;20089;-86
2023/07/14 12:40:22;;;;;;;9.70;6.00;;;;;;;20.89;100.00;98092.22;5078308;28;20055;-86
2023/07/14 12:43:14;;;;;;;8.40;5.80;;;;;;;21.06;100.00;98072.25;5078178;28;20107;-85
2023/07/14 12:45:59;;;;;;;6.95;5.82;;;;;;;21.14;100.00;98062.81;5080457;28;20122;-85
2023/07/14 12:48:44;;;;;;;9.20;6.47;;;;;;;21.23;100.00;98064.56;5082160;28;20040;-85
2023/07/14 12:51:30;;;;;;;11.05;6.05;;;;;;;21.17;100.00;98046.22;5081571;28;20097;-87
2023/07/14 12:54:18;;;;;;;8.73;6.45;;;;;;;20.80;100.00;98052.03;5080859;28;20136;-87
2023/07/14 12:57:03;;;;;;;11.85;7.20;;;;;;;20.72;100.00;98043.84;5079135;28;20085;-84
2023/07/14 12:59:49;;;;;;;10.80;7.05;;;;;;;20.74;100.00;98041.69;5076622;28;20040;-84
2023/07/14 13:02:37;;;;;;;10.98;8.27;;;;;;;20.61;100.00;98027.19;5080792;28;20614;-88
2023/07/14 13:05:33;;;;;;;16.70;8.05;;;;;;;20.64;100.00;98032.75;5075736;28;20101;-86
2023/07/14 13:08:26;;;;;;;16.65;8.10;;;;;;;20.83;100.00;98019.47;5077499;28;20047;-86
2023/07/14 13:11:19;;;;;;;11.10;7.88;;;;;;;20.94;100.00;98008.69;5076251;28;20051;-86